Share

Panola, AL

3:45 PM CDT on April 24, 2014 (GMT -0500)
Meridian Naval Air Station (KNMM) Elev 318 ft | 32.55 °N, 88.56 °W | Change Station

Current weather conditions updated 49 minutes ago

Mostly Cloudy
Mostly Cloudy
84 °F
Feels Like 83 °F
N
9
Wind Variable Wind from SSW
Gusts 18 mph
Sunrise 6:12 AM
Sunset 7:29 PM
Moon Waning Crescent

Today is forecast to be Warmer than yesterday. .

Pressure 29.92 in
Visibility 10.0 miles
Clouds Scattered Clouds 6000 ft
Mostly Cloudy 25000 ft
Heat Index 83 °F
Dew Point 56 °F
Humidity 38%
Rainfall 0.00 in
Snow Depth Not available.
UV 5 out of 16
Pollen 8.00 out of 12
Air Quality Not available.
Flu Activity Sporadic
METAR KNMM 241956Z 21008G16KT 180V250 10SM SCT060 BKN250 29/13 A2990 RMK AO2 SLP132 T02890133 $

More Conditions Fewer Conditions

Pressure 29.92 in
Visibility 10.0 miles
Clouds Scattered Clouds 6000 ft
Mostly Cloudy 25000 ft
Heat Index 83 °F
Dew Point 56 °F
Humidity 38%
Rainfall 0.00 in
Snow Depth Not available.
UV 5 out of 16
Pollen 8.00 out of 12
Air Quality Not available.
Flu Activity Sporadic
METAR KNMM 241956Z 21008G16KT 180V250 10SM SCT060 BKN250 29/13 A2990 RMK AO2 SLP132 T02890133 $

More Conditions Fewer Conditions

10-Day Weather Forecast

Almanac

Astronomy

Apr. 24, 2014 Rise Set
Actual Time 6:12 AM CDT 7:29 PM CDT
Civil Twilight 5:47 AM CDT 7:55 PM CDT
Nautical Twilight 5:16 AM CDT 8:26 PM CDT
Astronomical Twilight 4:44 AM CDT 8:58 PM CDT
Moon 3:07 AM CDT 3:00 PM CDT
Length of Visible Light 14h 08m
Length of Day
13h 17m
Tomorrow will be 1m 50s longer.
Waning Crescent, 23% of the Moon is Illuminated
Today
Waning Crescent
Apr 29
New
May 6
First Quarter
May 14
Full
May 21
Last Quarter

Today's Extremes

State Highs State Lows

Community

  • Sunset at Apalachicola Bay, Florida
    Sunset at Apalachicola Bay, Florida
  • Clouds mov'n in
    Clouds mov'n in
  • Stacked
    Stacked
  • clouds approaching Red Sox Nation
    clouds approaching Red Sox Nation
  • Balance
    Balance

WunderPhotos

Upload Photos

1,704,708 photos uploaded!

Nearby

Snow Depth

Station Depth Elevation
No new snow has been reported.

Coastal Water Temperatures

Place Temperature
No Stations Reporting

Earthquake Activity

City Distance Mag. Time & Date
No recent earthquake activity has been reported nearby.
Minimum magnitude displayed is 2.5.

Nearby Weather Stations

There are no personal weather stations in this area.

What do you think?

We're not finished. Please let us know what you like, what you don't like, and what you are still missing.